Time;durP1;ratioP1;P1;durP2;ratioP2;P2;SDS_P1;SDS_P2;PMS_P1;PMS_P2;Temp;Humidity;BMP_temperature;BMP_pressure;BME280_temperature;BME280_humidity;BME280_pressure;Samples;Min_cycle;Max_cycle;Signal;HPM_P1;HPM_P2
2021/05/02 00:00:34;;;;;;;8.80;8.00;;;;;21.00;100277.00;;;;2071532;28;20215;-70
2021/05/02 00:01:36;;;;;;;8.05;7.35;;;;;21.00;100285.00;;;;2074219;28;20651;-69
2021/05/02 00:02:36;;;;;;;8.40;7.70;;;;;20.90;100285.00;;;;2072293;28;20245;-69
2021/05/02 00:03:36;;;;;;;8.10;7.40;;;;;21.00;100288.00;;;;2064046;28;20706;-69
2021/05/02 00:04:37;;;;;;;7.23;6.60;;;;;20.90;100289.00;;;;2072202;28;20218;-70
2021/05/02 00:05:37;;;;;;;7.43;6.83;;;;;20.90;100280.00;;;;2071658;28;20269;-69
2021/05/02 00:06:37;;;;;;;8.13;7.43;;;;;21.00;100285.00;;;;2079461;28;20206;-69
2021/05/02 00:07:38;;;;;;;7.87;7.07;;;;;20.90;100280.00;;;;2079461;28;20226;-69
2021/05/02 00:08:38;;;;;;;7.70;7.10;;;;;20.90;100282.00;;;;2071792;28;20573;-69
2021/05/02 00:09:38;;;;;;;8.23;7.43;;;;;20.90;100285.00;;;;2079789;28;20700;-69
2021/05/02 00:10:39;;;;;;;7.83;7.13;;;;;20.90;100284.00;;;;2080558;28;20588;-69
2021/05/02 00:11:39;;;;;;;7.50;6.80;;;;;20.90;100284.00;;;;2079743;28;20616;-69
2021/05/02 00:12:39;;;;;;;7.10;6.47;;;;;20.90;100288.00;;;;2063909;28;20211;-69
2021/05/02 00:13:40;;;;;;;8.07;7.37;;;;;20.90;100288.00;;;;2072236;28;20219;-69
2021/05/02 00:14:40;;;;;;;7.40;6.70;;;;;20.90;100291.00;;;;2071974;28;20216;-69
2021/05/02 00:15:41;;;;;;;7.40;6.80;;;;;20.90;100288.00;;;;2054392;28;20694;-69
2021/05/02 00:16:41;;;;;;;7.50;6.90;;;;;20.90;100283.00;;;;2072237;28;20709;-69
2021/05/02 00:17:43;;;;;;;7.40;6.80;;;;;20.90;100288.00;;;;2071989;28;20343;-69
2021/05/02 00:18:45;;;;;;;7.53;6.80;;;;;20.90;100288.00;;;;2064446;28;20784;-69
2021/05/02 00:19:45;;;;;;;7.47;6.82;;;;;20.90;100286.00;;;;2060655;28;20224;-69
2021/05/02 00:20:46;;;;;;;6.90;6.30;;;;;20.90;100288.00;;;;2072280;28;20207;-69
2021/05/02 00:21:47;;;;;;;7.20;6.60;;;;;20.90;100288.00;;;;2072311;28;20218;-69
2021/05/02 00:22:50;;;;;;;6.90;6.30;;;;;20.90;100288.00;;;;2080422;28;20960;-69
2021/05/02 00:23:50;;;;;;;7.05;6.45;;;;;20.90;100295.00;;;;2064091;28;20719;-69
2021/05/02 00:24:50;;;;;;;7.50;6.90;;;;;20.90;100277.00;;;;2064257;28;20275;-69
2021/05/02 00:25:51;;;;;;;7.70;7.10;;;;;20.80;100283.00;;;;2080071;28;20206;-69
2021/05/02 00:26:51;;;;;;;6.80;6.30;;;;;20.80;100287.00;;;;2072201;28;20211;-69
2021/05/02 00:27:51;;;;;;;7.20;6.60;;;;;20.90;100285.00;;;;2071653;28;20721;-69
2021/05/02 00:28:52;;;;;;;7.70;7.10;;;;;20.80;100285.00;;;;2071335;28;20564;-69
2021/05/02 00:29:52;;;;;;;6.90;6.40;;;;;20.80;100293.00;;;;2072298;28;20282;-69
2021/05/02 00:30:53;;;;;;;6.73;6.20;;;;;20.80;100293.00;;;;2080442;28;20225;-69
2021/05/02 00:31:53;;;;;;;7.37;6.67;;;;;20.80;100286.00;;;;2072034;28;20245;-69
2021/05/02 00:32:54;;;;;;;7.33;6.73;;;;;20.80;100290.00;;;;2055876;28;20266;-69
2021/05/02 00:33:55;;;;;;;7.25;6.65;;;;;20.80;100297.00;;;;2056077;28;20265;-69
2021/05/02 00:34:55;;;;;;;6.60;6.10;;;;;20.80;100293.00;;;;2072041;28;20235;-69
2021/05/02 00:35:56;;;;;;;7.63;6.93;;;;;20.80;100289.00;;;;2072100;28;20222;-69
2021/05/02 00:36:56;;;;;;;7.53;6.83;;;;;20.80;100291.00;;;;2064070;28;20949;-69
2021/05/02 00:37:56;;;;;;;6.90;6.33;;;;;20.80;100278.00;;;;2071774;28;20610;-69
2021/05/02 00:38:57;;;;;;;7.03;6.53;;;;;20.80;100294.00;;;;2063612;28;20586;-69
2021/05/02 00:39:57;;;;;;;6.53;6.03;;;;;20.80;100281.00;;;;2063947;28;20664;-69
2021/05/02 00:40:57;;;;;;;6.80;6.20;;;;;20.80;100292.00;;;;2080305;28;20607;-69
2021/05/02 00:41:58;;;;;;;7.13;6.53;;;;;20.80;100290.00;;;;2071009;28;20251;-69
2021/05/02 00:42:59;;;;;;;6.10;5.60;;;;;20.80;100302.00;;;;2063738;28;20222;-69
2021/05/02 00:44:04;;;;;;;6.63;5.97;;;;;20.80;100295.00;;;;2071874;28;20246;-69
2021/05/02 00:45:06;;;;;;;6.95;6.45;;;;;20.80;100288.00;;;;2064399;28;20229;-69
2021/05/02 00:46:12;;;;;;;6.22;5.68;;;;;20.80;100291.00;;;;2055701;28;20251;-69
2021/05/02 00:47:15;;;;;;;6.50;6.00;;;;;20.80;100281.00;;;;2056945;28;20220;-69
2021/05/02 00:49:03;;;;;;;6.53;6.03;;;;;20.80;100302.00;;;;2062309;28;20235;-67
2021/05/02 00:50:17;;;;;;;6.75;6.15;;;;;20.80;100293.00;;;;2071871;28;20218;-69
2021/05/02 00:51:18;;;;;;;6.80;6.20;;;;;20.80;100296.00;;;;2065080;28;20774;-69
2021/05/02 00:52:34;;;;;;;6.32;5.82;;;;;20.80;100298.00;;;;2062944;28;20219;-69
2021/05/02 00:53:49;;;;;;;6.68;6.18;;;;;20.80;100297.00;;;;2078761;28;20226;-69
2021/05/02 00:54:50;;;;;;;6.72;6.22;;;;;20.70;100299.00;;;;2080569;28;20224;-70
2021/05/02 00:55:55;;;;;;;6.03;5.53;;;;;20.70;100294.00;;;;2071842;28;20214;-69
2021/05/02 00:57:08;;;;;;;5.88;5.47;;;;;20.70;100301.00;;;;2049016;28;20248;-69
2021/05/02 00:58:11;;;;;;;6.45;5.95;;;;;20.70;100288.00;;;;2050648;28;20223;-69
2021/05/02 00:59:33;;;;;;;6.60;6.00;;;;;20.70;100292.00;;;;2071443;28;20248;-70
2021/05/02 01:00:40;;;;;;;6.28;5.78;;;;;20.70;100290.00;;;;2074552;28;20217;-69
2021/05/02 01:01:43;;;;;;;7.13;6.60;;;;;20.70;100297.00;;;;2071935;28;20215;-69
2021/05/02 01:02:43;;;;;;;7.10;6.50;;;;;20.70;100281.00;;;;2057165;28;20299;-70
2021/05/02 01:03:44;;;;;;;6.13;5.73;;;;;20.70;100290.00;;;;2055702;28;20843;-69
2021/05/02 01:04:44;;;;;;;6.50;6.00;;;;;20.70;100300.00;;;;2063803;28;20227;-69
2021/05/02 01:05:45;;;;;;;6.50;6.00;;;;;20.80;100293.00;;;;2066314;28;20218;-69
2021/05/02 01:06:45;;;;;;;6.93;6.43;;;;;20.70;100296.00;;;;2072059;28;20508;-69
2021/05/02 01:07:46;;;;;;;6.83;6.33;;;;;20.70;100301.00;;;;2062819;28;21672;-70
2021/05/02 01:08:49;;;;;;;6.70;6.20;;;;;20.70;100303.00;;;;2063852;28;20216;-69
2021/05/02 01:09:50;;;;;;;7.30;6.63;;;;;20.70;100294.00;;;;2064366;28;20220;-69
2021/05/02 01:10:50;;;;;;;6.50;6.10;;;;;20.70;100303.00;;;;2071317;28;20223;-69
2021/05/02 01:11:50;;;;;;;6.90;6.20;;;;;20.70;100298.00;;;;2063761;28;20228;-69
2021/05/02 01:12:55;;;;;;;6.53;5.97;;;;;20.70;100302.00;;;;2063542;28;20219;-69
2021/05/02 01:14:01;;;;;;;6.18;5.68;;;;;20.70;100297.00;;;;2076417;28;20708;-69
2021/05/02 01:15:02;;;;;;;6.60;6.00;;;;;20.70;100300.00;;;;2071587;28;20223;-69
2021/05/02 01:16:04;;;;;;;6.33;5.73;;;;;20.70;100289.00;;;;2055623;28;20611;-69
2021/05/02 01:17:04;;;;;;;6.65;6.05;;;;;20.70;100298.00;;;;2056020;28;20271;-69
2021/05/02 01:18:06;;;;;;;6.37;5.87;;;;;20.70;100297.00;;;;2056640;28;20216;-70
2021/05/02 01:19:11;;;;;;;6.60;6.10;;;;;20.70;100302.00;;;;2071470;28;20223;-69
2021/05/02 01:20:14;;;;;;;6.40;5.85;;;;;20.70;100301.00;;;;2072279;28;20219;-69
2021/05/02 01:21:15;;;;;;;6.88;6.38;;;;;20.70;100301.00;;;;2065528;28;20211;-69
2021/05/02 01:22:19;;;;;;;5.63;5.23;;;;;20.60;100302.00;;;;2055580;28;20780;-69
2021/05/02 01:23:26;;;;;;;6.60;6.10;;;;;20.70;100295.00;;;;2071847;28;20230;-70
2021/05/02 01:24:27;;;;;;;6.57;6.07;;;;;20.70;100302.00;;;;2072579;28;20701;-69
2021/05/02 01:25:27;;;;;;;6.43;5.93;;;;;20.60;100298.00;;;;2063566;28;20243;-69
2021/05/02 01:26:27;;;;;;;6.87;6.27;;;;;20.60;100300.00;;;;2071584;28;20210;-69
2021/05/02 01:27:29;;;;;;;6.90;6.40;;;;;20.70;100296.00;;;;2071543;28;20266;-69
2021/05/02 01:28:29;;;;;;;6.70;6.20;;;;;20.60;100304.00;;;;2062627;28;20267;-69
2021/05/02 01:29:30;;;;;;;6.00;5.57;;;;;20.70;100302.00;;;;2071536;28;20203;-69
2021/05/02 01:30:30;;;;;;;5.93;5.43;;;;;20.70;100313.00;;;;2071550;28;20213;-70
2021/05/02 01:31:31;;;;;;;5.63;5.17;;;;;20.70;100306.00;;;;2067276;28;20207;-69
2021/05/02 01:32:32;;;;;;;6.07;5.50;;;;;20.60;100309.00;;;;2063441;28;20773;-69
2021/05/02 01:33:32;;;;;;;6.67;6.17;;;;;20.60;100305.00;;;;2071527;28;20214;-70
2021/05/02 01:34:32;;;;;;;7.00;6.40;;;;;20.60;100314.00;;;;2070739;28;20215;-69
2021/05/02 01:35:33;;;;;;;6.23;5.73;;;;;20.60;100310.00;;;;2055418;28;20223;-69
2021/05/02 01:36:33;;;;;;;6.57;6.07;;;;;20.60;100309.00;;;;2071471;28;20214;-69
2021/05/02 01:37:33;;;;;;;6.43;5.90;;;;;20.60;100301.00;;;;2075987;28;20218;-69
2021/05/02 01:38:34;;;;;;;5.97;5.57;;;;;20.60;100303.00;;;;2063412;28;20231;-69
2021/05/02 01:39:34;;;;;;;6.23;5.73;;;;;20.60;100308.00;;;;2063061;28;20274;-69
2021/05/02 01:40:34;;;;;;;6.83;6.23;;;;;20.60;100305.00;;;;2071530;28;20219;-69
2021/05/02 01:41:35;;;;;;;6.80;6.30;;;;;20.60;100307.00;;;;2079687;28;20234;-69
2021/05/02 01:42:36;;;;;;;6.37;5.87;;;;;20.60;100310.00;;;;2079433;28;20210;-70
2021/05/02 01:43:36;;;;;;;7.00;6.40;;;;;20.60;100294.00;;;;2078032;28;20457;-69
2021/05/02 01:44:37;;;;;;;6.80;6.20;;;;;20.60;100311.00;;;;2070739;28;20210;-69
2021/05/02 01:45:37;;;;;;;6.30;5.90;;;;;20.60;100311.00;;;;2071526;28;20303;-69
2021/05/02 01:46:39;;;;;;;6.63;6.03;;;;;20.60;100318.00;;;;2079495;28;20284;-69
2021/05/02 01:47:43;;;;;;;6.20;5.75;;;;;20.60;100310.00;;;;2070971;28;20290;-69
2021/05/02 01:48:44;;;;;;;5.85;5.43;;;;;20.60;100298.00;;;;2072087;28;20214;-69
2021/05/02 01:50:00;;;;;;;6.87;6.27;;;;;20.60;100305.00;;;;2071376;28;20701;-69
2021/05/02 01:51:02;;;;;;;6.15;5.75;;;;;20.60;100312.00;;;;2073706;28;20270;-69
2021/05/02 01:52:03;;;;;;;6.13;5.72;;;;;20.60;100300.00;;;;2073222;28;20221;-69
2021/05/02 01:53:03;;;;;;;6.93;6.33;;;;;20.60;100295.00;;;;2079434;28;20260;-69
2021/05/02 01:54:04;;;;;;;6.37;5.87;;;;;20.60;100293.00;;;;2079621;28;20596;-69
2021/05/02 01:55:05;;;;;;;6.93;6.40;;;;;20.60;100309.00;;;;2055340;28;20306;-69
2021/05/02 01:56:05;;;;;;;6.23;5.73;;;;;20.60;100312.00;;;;2055208;28;20462;-69
2021/05/02 01:57:07;;;;;;;7.00;6.40;;;;;20.60;100304.00;;;;2069420;28;20521;-69
2021/05/02 01:58:09;;;;;;;7.10;6.50;;;;;20.60;100306.00;;;;2079058;28;20376;-69
2021/05/02 01:59:09;;;;;;;6.50;6.00;;;;;20.60;100302.00;;;;2079678;28;20218;-68
2021/05/02 02:00:24;;;;;;;6.60;6.00;;;;;20.50;100312.00;;;;2061636;28;20227;-69
2021/05/02 02:01:26;;;;;;;6.68;6.18;;;;;20.60;100307.00;;;;2066973;28;20237;-69
2021/05/02 02:02:27;;;;;;;6.70;6.20;;;;;20.50;100310.00;;;;2079080;28;20254;-69
2021/05/02 02:03:28;;;;;;;6.70;6.10;;;;;20.50;100309.00;;;;2079131;28;20561;-69
2021/05/02 02:04:29;;;;;;;6.60;6.10;;;;;20.50;100308.00;;;;2079460;28;20716;-69
2021/05/02 02:05:29;;;;;;;6.50;6.00;;;;;20.50;100303.00;;;;2071028;28;20221;-69
2021/05/02 02:06:30;;;;;;;6.53;5.83;;;;;20.50;100305.00;;;;2063252;28;20211;-69
2021/05/02 02:07:30;;;;;;;6.67;6.13;;;;;20.50;100310.00;;;;2079360;28;20202;-69
2021/05/02 02:08:31;;;;;;;6.53;6.03;;;;;20.50;100309.00;;;;2071518;28;20805;-69
2021/05/02 02:09:31;;;;;;;7.10;6.50;;;;;20.50;100315.00;;;;2055332;28;20621;-69
2021/05/02 02:10:32;;;;;;;7.00;6.40;;;;;20.50;100313.00;;;;2063114;28;20226;-69
2021/05/02 02:11:33;;;;;;;7.00;6.50;;;;;20.50;100314.00;;;;2079574;28;20213;-68
2021/05/02 02:12:33;;;;;;;6.90;6.40;;;;;20.60;100318.00;;;;2062980;28;20239;-69
2021/05/02 02:13:34;;;;;;;7.27;6.70;;;;;20.50;100320.00;;;;2059222;28;20215;-69
2021/05/02 02:14:38;;;;;;;7.60;7.00;;;;;20.50;100314.00;;;;2076274;28;20222;-69
2021/05/02 02:15:38;;;;;;;6.78;6.28;;;;;20.50;100321.00;;;;2079405;28;20202;-70
2021/05/02 02:16:42;;;;;;;7.17;6.57;;;;;20.50;100309.00;;;;2070934;28;20254;-69
2021/05/02 02:17:43;;;;;;;7.28;6.68;;;;;20.50;100321.00;;;;2055349;28;20283;-69
2021/05/02 02:18:43;;;;;;;7.13;6.53;;;;;20.50;100325.00;;;;2063149;28;20241;-69
2021/05/02 02:19:43;;;;;;;7.53;6.93;;;;;20.50;100319.00;;;;2076779;28;20453;-68
2021/05/02 02:20:53;;;;;;;7.60;7.03;;;;;20.50;100313.00;;;;2078137;28;20226;-69
2021/05/02 02:21:54;;;;;;;7.30;6.70;;;;;20.50;100321.00;;;;2072522;28;20203;-69
2021/05/02 02:22:56;;;;;;;7.27;6.67;;;;;20.50;100321.00;;;;2063017;28;20613;-69
2021/05/02 02:23:58;;;;;;;7.72;7.03;;;;;20.50;100316.00;;;;2063240;28;20219;-69
2021/05/02 02:25:00;;;;;;;6.90;6.35;;;;;20.50;100323.00;;;;2063238;28;20637;-69
2021/05/02 02:26:15;;;;;;;7.15;6.65;;;;;20.50;100325.00;;;;2046988;28;20228;-69
2021/05/02 02:27:15;;;;;;;7.07;6.47;;;;;20.50;100325.00;;;;2061082;28;20215;-69
2021/05/02 02:28:17;;;;;;;7.47;6.87;;;;;20.50;100324.00;;;;2067129;28;20211;-69
2021/05/02 02:29:18;;;;;;;6.65;6.15;;;;;20.50;100324.00;;;;2066380;28;20645;-69
2021/05/02 02:30:18;;;;;;;7.30;6.70;;;;;20.50;100323.00;;;;2076394;28;20225;-69
2021/05/02 02:31:19;;;;;;;6.83;6.33;;;;;20.50;100324.00;;;;2071211;28;20231;-69
2021/05/02 02:32:19;;;;;;;7.10;6.50;;;;;20.50;100325.00;;;;2055000;28;20224;-68
2021/05/02 02:33:20;;;;;;;6.90;6.40;;;;;20.30;100331.00;;;;2062847;28;20314;-69
2021/05/02 02:34:22;;;;;;;6.70;6.20;;;;;20.50;100331.00;;;;2062732;28;20227;-69
2021/05/02 02:35:23;;;;;;;7.50;6.90;;;;;20.50;100335.00;;;;2063369;28;20705;-69
2021/05/02 02:36:23;;;;;;;7.23;6.73;;;;;20.50;100330.00;;;;2063161;28;20211;-69
2021/05/02 02:37:25;;;;;;;6.97;6.33;;;;;20.50;100334.00;;;;2054841;28;20219;-69
2021/05/02 02:38:26;;;;;;;6.85;6.28;;;;;20.50;100322.00;;;;2055138;28;20310;-69
2021/05/02 02:39:26;;;;;;;6.43;5.93;;;;;20.50;100335.00;;;;2059957;28;20223;-69
2021/05/02 02:40:27;;;;;;;6.07;5.57;;;;;20.50;100315.00;;;;2062962;28;20208;-69
2021/05/02 02:41:27;;;;;;;7.50;6.20;;;;;20.50;100331.00;;;;2055043;28;20679;-69
2021/05/02 02:42:28;;;;;;;6.27;5.77;;;;;20.50;100334.00;;;;2063064;28;20728;-69
2021/05/02 02:43:31;;;;;;;5.97;5.50;;;;;20.40;100336.00;;;;2071156;28;20309;-69
2021/05/02 02:44:33;;;;;;;6.72;6.22;;;;;20.40;100334.00;;;;2078937;28;20210;-69
2021/05/02 02:45:34;;;;;;;6.40;5.80;;;;;20.40;100335.00;;;;2071040;28;20257;-69
2021/05/02 02:46:41;;;;;;;6.20;5.70;;;;;20.40;100335.00;;;;2071364;28;20219;-69
2021/05/02 02:47:48;;;;;;;6.07;5.57;;;;;20.40;100339.00;;;;2078887;28;20202;-68
2021/05/02 02:48:58;;;;;;;6.00;5.50;;;;;20.40;100333.00;;;;2072003;28;20320;-69
2021/05/02 02:50:00;;;;;;;6.22;5.72;;;;;20.40;100341.00;;;;2072264;28;20637;-69
2021/05/02 02:51:01;;;;;;;5.45;5.05;;;;;20.40;100342.00;;;;2078874;28;20716;-69
2021/05/02 02:52:02;;;;;;;6.00;5.50;;;;;20.40;100342.00;;;;2078614;28;20291;-69
2021/05/02 02:53:04;;;;;;;6.20;5.70;;;;;20.40;100339.00;;;;2071121;28;20720;-68
2021/05/02 02:54:04;;;;;;;5.68;5.25;;;;;20.40;100343.00;;;;2055418;28;20702;-69
2021/05/02 02:55:06;;;;;;;6.50;5.90;;;;;20.40;100325.00;;;;2055135;28;20219;-69
2021/05/02 02:56:08;;;;;;;6.28;5.68;;;;;20.40;100342.00;;;;2063153;28;20710;-69
2021/05/02 02:57:08;;;;;;;6.00;5.50;;;;;20.40;100343.00;;;;2063452;28;20211;-69
2021/05/02 02:58:09;;;;;;;5.80;5.30;;;;;20.40;100348.00;;;;2061222;28;20203;-69
2021/05/02 02:59:17;;;;;;;5.50;5.10;;;;;20.40;100351.00;;;;2059143;28;20306;-69
2021/05/02 03:00:19;;;;;;;5.07;4.57;;;;;20.40;100341.00;;;;2070750;28;20296;-69
2021/05/02 03:01:19;;;;;;;6.28;5.65;;;;;20.40;100349.00;;;;2064015;28;20250;-69
2021/05/02 03:02:20;;;;;;;5.40;5.00;;;;;20.40;100354.00;;;;2071086;28;20353;-69
2021/05/02 03:03:21;;;;;;;5.63;5.13;;;;;20.40;100351.00;;;;2070554;28;20242;-68
2021/05/02 03:04:23;;;;;;;5.37;4.97;;;;;20.40;100350.00;;;;2055096;28;20471;-69
2021/05/02 03:05:23;;;;;;;5.65;5.20;;;;;20.40;100354.00;;;;2055375;28;20224;-69
2021/05/02 03:06:27;;;;;;;5.30;4.90;;;;;20.40;100352.00;;;;2071075;28;20550;-69
2021/05/02 03:07:27;;;;;;;5.15;4.75;;;;;20.40;100350.00;;;;2078717;28;20464;-69
2021/05/02 03:08:31;;;;;;;4.83;4.43;;;;;20.40;100344.00;;;;2062743;28;20223;-69
2021/05/02 03:09:31;;;;;;;5.03;4.50;;;;;20.40;100345.00;;;;2055547;28;20298;-69
2021/05/02 03:10:31;;;;;;;5.43;5.00;;;;;20.40;100344.00;;;;2069137;28;20654;-68
2021/05/02 03:11:32;;;;;;;4.87;4.47;;;;;20.40;100353.00;;;;2072545;28;20233;-68
2021/05/02 03:12:32;;;;;;;4.40;4.00;;;;;20.40;100352.00;;;;2079066;28;20369;-69
2021/05/02 03:13:32;;;;;;;4.80;4.37;;;;;20.40;100349.00;;;;2078793;28;20210;-69
2021/05/02 03:14:33;;;;;;;5.00;4.50;;;;;20.40;100357.00;;;;2079099;28;20272;-69
2021/05/02 03:15:33;;;;;;;5.13;4.70;;;;;20.30;100353.00;;;;2070965;28;20222;-69
2021/05/02 03:16:33;;;;;;;4.73;4.33;;;;;20.40;100351.00;;;;2070024;28;20348;-69
2021/05/02 03:17:34;;;;;;;4.17;3.77;;;;;20.40;100350.00;;;;2051530;28;20247;-69
2021/05/02 03:18:43;;;;;;;4.90;4.50;;;;;20.40;100360.00;;;;2054251;28;20224;-68
2021/05/02 03:19:44;;;;;;;4.55;4.25;;;;;20.40;100360.00;;;;2058482;28;20218;-69
2021/05/02 03:20:45;;;;;;;3.90;3.60;;;;;20.40;100353.00;;;;2063941;28;20728;-69
2021/05/02 03:21:51;;;;;;;4.75;4.35;;;;;20.40;100355.00;;;;2075364;28;20218;-69
2021/05/02 03:22:59;;;;;;;4.20;3.90;;;;;20.40;100350.00;;;;2074360;28;20577;-69
2021/05/02 03:24:02;;;;;;;4.65;4.25;;;;;20.40;100353.00;;;;2046907;28;20224;-69
2021/05/02 03:25:03;;;;;;;4.45;4.05;;;;;20.30;100365.00;;;;2055024;28;20215;-67
2021/05/02 03:26:05;;;;;;;4.40;4.00;;;;;20.40;100351.00;;;;2069922;28;20210;-69
2021/05/02 03:27:31;;;;;;;4.47;4.15;;;;;20.40;100360.00;;;;2062575;28;20672;-69
2021/05/02 03:28:36;;;;;;;4.65;4.30;;;;;20.30;100349.00;;;;2073811;28;20708;-69
2021/05/02 03:29:40;;;;;;;4.22;3.85;;;;;20.30;100362.00;;;;2063432;28;20230;-70
2021/05/02 03:30:42;;;;;;;6.38;4.47;;;;;20.30;100369.00;;;;2063415;28;20222;-69
2021/05/02 03:31:42;;;;;;;4.40;4.00;;;;;20.30;100349.00;;;;2062532;28;20212;-69
2021/05/02 03:32:47;;;;;;;4.17;3.87;;;;;20.30;100356.00;;;;2062222;28;20285;-69
2021/05/02 03:33:47;;;;;;;4.13;3.83;;;;;20.30;100364.00;;;;2062450;28;20293;-69
2021/05/02 03:34:47;;;;;;;4.57;4.17;;;;;20.30;100366.00;;;;2054262;28;20223;-69
2021/05/02 03:35:48;;;;;;;4.43;4.13;;;;;20.30;100363.00;;;;2054069;28;20216;-69
2021/05/02 03:36:51;;;;;;;4.30;4.00;;;;;20.30;100362.00;;;;2062177;28;20274;-69
2021/05/02 03:38:08;;;;;;;4.47;4.07;;;;;20.30;100362.00;;;;2067540;28;20219;-70
2021/05/02 03:39:09;;;;;;;4.80;4.40;;;;;20.30;100374.00;;;;2069355;28;20213;-69
2021/05/02 03:40:09;;;;;;;5.27;4.30;;;;;20.30;100358.00;;;;2062539;28;20574;-69
2021/05/02 03:41:10;;;;;;;4.63;4.23;;;;;20.30;100371.00;;;;2062649;28;20243;-69
2021/05/02 03:42:10;;;;;;;4.97;4.57;;;;;20.30;100373.00;;;;2070796;28;20219;-69
2021/05/02 03:43:11;;;;;;;9.70;4.63;;;;;20.30;100361.00;;;;2070841;28;20210;-69
2021/05/02 03:44:11;;;;;;;5.10;4.70;;;;;20.30;100377.00;;;;2070839;28;20211;-69
2021/05/02 03:45:12;;;;;;;4.70;4.30;;;;;20.30;100370.00;;;;2078972;28;20476;-69
2021/05/02 03:46:25;;;;;;;5.27;4.77;;;;;20.30;100378.00;;;;2079801;28;20268;-69
2021/05/02 03:47:25;;;;;;;5.63;5.13;;;;;20.30;100368.00;;;;2066308;28;20294;-69
2021/05/02 03:48:25;;;;;;;6.00;5.07;;;;;20.30;100375.00;;;;2071920;28;20211;-69
2021/05/02 03:49:28;;;;;;;5.40;4.90;;;;;20.30;100380.00;;;;2079007;28;20872;-69
2021/05/02 03:50:29;;;;;;;9.95;5.00;;;;;20.30;100371.00;;;;2078970;28;20206;-69
2021/05/02 03:51:30;;;;;;;5.57;5.17;;;;;20.30;100381.00;;;;2079184;28;20218;-70
2021/05/02 03:52:30;;;;;;;6.00;5.50;;;;;20.30;100375.00;;;;2070832;28;20313;-69
2021/05/02 03:53:31;;;;;;;5.50;5.10;;;;;20.30;100384.00;;;;2070556;28;20214;-69
2021/05/02 03:54:31;;;;;;;5.40;5.00;;;;;20.30;100377.00;;;;2079799;28;20237;-69
2021/05/02 03:55:42;;;;;;;5.60;5.20;;;;;20.30;100377.00;;;;2079872;28;20218;-70
2021/05/02 03:56:44;;;;;;;5.93;5.43;;;;;20.30;100388.00;;;;2075209;28;20469;-69
2021/05/02 03:57:44;;;;;;;5.30;4.90;;;;;20.30;100390.00;;;;2070560;28;20221;-70
2021/05/02 03:58:44;;;;;;;5.53;5.00;;;;;20.30;100387.00;;;;2070868;28;20222;-69
2021/05/02 03:59:44;;;;;;;5.50;5.00;;;;;20.30;100393.00;;;;2078150;28;20229;-69
2021/05/02 04:00:45;;;;;;;5.87;5.37;;;;;20.30;100386.00;;;;2077759;28;20233;-70
2021/05/02 04:01:50;;;;;;;5.80;5.30;;;;;20.30;100373.00;;;;2070726;28;20694;-69
2021/05/02 04:02:50;;;;;;;6.72;6.13;;;;;20.30;100388.00;;;;2072068;28;20203;-69
2021/05/02 04:03:50;;;;;;;5.57;5.07;;;;;20.30;100392.00;;;;2080619;28;20218;-69
2021/05/02 04:04:50;;;;;;;6.10;5.60;;;;;20.30;100394.00;;;;2079846;28;20214;-70
2021/05/02 04:05:51;;;;;;;5.43;5.03;;;;;20.30;100397.00;;;;2072138;28;20257;-69
2021/05/02 04:06:56;;;;;;;6.37;5.77;;;;;20.30;100396.00;;;;2080298;28;20236;-69
2021/05/02 04:07:56;;;;;;;6.28;5.78;;;;;20.20;100396.00;;;;2072156;28;20215;-69
2021/05/02 04:08:57;;;;;;;7.20;6.53;;;;;20.20;100403.00;;;;2061767;28;20781;-70
2021/05/02 04:09:57;;;;;;;6.20;5.70;;;;;20.20;100402.00;;;;2080128;28;20716;-69
2021/05/02 04:10:57;;;;;;;7.13;6.43;;;;;20.20;100403.00;;;;2080930;28;20241;-70
2021/05/02 04:11:58;;;;;;;6.53;5.93;;;;;20.20;100396.00;;;;2077065;28;20217;-69
2021/05/02 04:12:58;;;;;;;6.40;5.90;;;;;20.20;100399.00;;;;2080077;28;20256;-69
2021/05/02 04:14:03;;;;;;;6.43;5.93;;;;;20.20;100400.00;;;;2080081;28;20233;-69
2021/05/02 04:15:04;;;;;;;6.35;5.85;;;;;20.20;100409.00;;;;2068648;28;20245;-69
2021/05/02 04:16:04;;;;;;;6.80;6.20;;;;;20.20;100404.00;;;;2064243;28;20227;-69
2021/05/02 04:17:06;;;;;;;6.60;6.10;;;;;20.20;100408.00;;;;2079386;28;20461;-69
2021/05/02 04:18:06;;;;;;;6.53;5.60;;;;;20.20;100402.00;;;;2080237;28;20230;-68
2021/05/02 04:19:07;;;;;;;6.77;6.03;;;;;20.20;100399.00;;;;2062142;28;20215;-69
2021/05/02 04:20:08;;;;;;;7.00;6.40;;;;;20.20;100411.00;;;;2064144;28;20227;-69
2021/05/02 04:21:10;;;;;;;7.27;6.60;;;;;20.20;100406.00;;;;2072086;28;20763;-68
2021/05/02 04:22:14;;;;;;;7.35;6.63;;;;;20.20;100421.00;;;;2071861;28;20462;-69
2021/05/02 04:23:15;;;;;;;6.18;5.68;;;;;20.20;100412.00;;;;2072999;28;20768;-69
2021/05/02 04:24:15;;;;;;;6.60;6.00;;;;;20.20;100424.00;;;;2079999;28;20313;-69
2021/05/02 04:25:15;;;;;;;6.83;6.33;;;;;20.20;100401.00;;;;2071753;28;20227;-69
2021/05/02 04:26:16;;;;;;;7.00;6.13;;;;;20.20;100409.00;;;;2080082;28;20305;-69
2021/05/02 04:27:16;;;;;;;6.77;6.17;;;;;20.20;100411.00;;;;2088535;28;20213;-69
2021/05/02 04:28:16;;;;;;;6.60;6.10;;;;;20.20;100421.00;;;;2079809;28;20206;-69
2021/05/02 04:29:17;;;;;;;6.87;6.27;;;;;20.20;100419.00;;;;2080107;28;20234;-69
2021/05/02 04:30:17;;;;;;;6.83;6.10;;;;;20.20;100415.00;;;;2071933;28;20218;-69
2021/05/02 04:31:18;;;;;;;7.57;5.40;;;;;20.20;100417.00;;;;2071730;28;20234;-69
2021/05/02 04:32:18;;;;;;;7.00;6.33;;;;;20.20;100419.00;;;;2063819;28;20211;-69
2021/05/02 04:33:19;;;;;;;6.83;6.10;;;;;20.20;100421.00;;;;2055761;28;20283;-69
2021/05/02 04:34:19;;;;;;;6.73;6.13;;;;;20.20;100423.00;;;;2079818;28;20210;-69
2021/05/02 04:35:20;;;;;;;6.10;5.60;;;;;20.20;100429.00;;;;2063696;28;20215;-69
2021/05/02 04:36:20;;;;;;;6.60;6.00;;;;;20.20;100425.00;;;;2063862;28;20474;-68
2021/05/02 04:37:20;;;;;;;7.17;6.57;;;;;20.20;100434.00;;;;2079954;28;20730;-69
2021/05/02 04:38:21;;;;;;;6.70;6.20;;;;;20.20;100429.00;;;;2071937;28;20701;-69
2021/05/02 04:39:21;;;;;;;6.97;6.37;;;;;20.20;100440.00;;;;2063938;28;20702;-69
2021/05/02 04:40:22;;;;;;;6.90;6.30;;;;;20.20;100432.00;;;;2071827;28;20218;-69
2021/05/02 04:41:22;;;;;;;6.97;5.83;;;;;20.20;100436.00;;;;2071985;28;20357;-69
2021/05/02 04:42:22;;;;;;;7.40;6.70;;;;;20.20;100433.00;;;;2080090;28;20218;-69
2021/05/02 04:43:23;;;;;;;6.47;5.80;;;;;20.20;100435.00;;;;2078858;28;20561;-69
2021/05/02 04:44:24;;;;;;;7.00;6.40;;;;;20.20;100441.00;;;;2071580;28;20233;-69
2021/05/02 04:45:24;;;;;;;7.30;6.70;;;;;20.20;100439.00;;;;2060083;28;20216;-69
2021/05/02 04:46:24;;;;;;;8.33;6.90;;;;;20.20;100437.00;;;;2075007;28;20535;-69
2021/05/02 04:47:25;;;;;;;6.67;6.17;;;;;20.20;100435.00;;;;2079111;28;20221;-69
2021/05/02 04:48:25;;;;;;;6.40;5.90;;;;;20.20;100435.00;;;;2063011;28;20219;-70
2021/05/02 04:49:26;;;;;;;7.20;6.50;;;;;20.10;100445.00;;;;2063250;28;20233;-69
2021/05/02 04:50:26;;;;;;;6.03;5.43;;;;;20.20;100450.00;;;;2078273;28;20218;-69
2021/05/02 04:51:27;;;;;;;6.83;6.23;;;;;20.20;100445.00;;;;2080035;28;20248;-69
2021/05/02 04:52:27;;;;;;;6.63;6.07;;;;;20.10;100452.00;;;;2070472;28;20226;-69
2021/05/02 04:53:27;;;;;;;7.20;6.50;;;;;20.10;100452.00;;;;2079804;28;20736;-69
2021/05/02 04:54:28;;;;;;;7.30;6.60;;;;;20.10;100451.00;;;;2080699;28;20862;-69
2021/05/02 04:55:28;;;;;;;6.83;6.13;;;;;20.10;100451.00;;;;2080574;28;20759;-69
2021/05/02 04:56:28;;;;;;;6.37;5.80;;;;;20.10;100452.00;;;;2079937;28;20593;-69
2021/05/02 04:57:31;;;;;;;6.90;6.30;;;;;20.10;100452.00;;;;2079976;28;20260;-69
2021/05/02 04:58:31;;;;;;;6.40;5.90;;;;;20.10;100449.00;;;;2079655;28;20210;-69
2021/05/02 04:59:32;;;;;;;6.67;6.07;;;;;20.10;100455.00;;;;2063349;28;20216;-69
2021/05/02 05:00:33;;;;;;;6.60;6.00;;;;;20.10;100459.00;;;;2063613;28;20246;-69
2021/05/02 05:01:35;;;;;;;7.03;6.25;;;;;20.10;100465.00;;;;2070102;28;20203;-69
2021/05/02 05:02:35;;;;;;;6.55;5.95;;;;;20.10;100454.00;;;;2061283;28;20222;-69
2021/05/02 05:03:36;;;;;;;6.30;5.70;;;;;20.10;100450.00;;;;2070192;28;20218;-69
2021/05/02 05:04:36;;;;;;;6.10;5.60;;;;;20.10;100460.00;;;;2079847;28;20254;-69
2021/05/02 05:05:36;;;;;;;7.30;6.33;;;;;20.10;100456.00;;;;2079825;28;20700;-69
2021/05/02 05:06:37;;;;;;;7.03;6.13;;;;;20.10;100457.00;;;;2080100;28;20202;-68